地図

経路データ

SID SEASON NUMBER BASIN SUBBASIN NAME ISO_TIME NATURE LAT LON WMO_WIND WMO_PRES WMO_AGENCY TRACK_TYPE DIST2LAND LANDFALL IFLAG USA_AGENCY USA_ATCF_ID USA_LAT USA_LON USA_RECORD USA_STATUS USA_WIND USA_PRES USA_SSHS USA_R34_NE USA_R34_SE USA_R34_SW USA_R34_NW USA_R50_NE USA_R50_SE USA_R50_SW USA_R50_NW USA_R64_NE USA_R64_SE USA_R64_SW USA_R64_NW USA_POCI USA_ROCI USA_RMW USA_EYE TOKYO_LAT TOKYO_LON TOKYO_GRADE TOKYO_WIND TOKYO_PRES TOKYO_R50_DIR TOKYO_R50_LONG TOKYO_R50_SHORT TOKYO_R30_DIR TOKYO_R30_LONG TOKYO_R30_SHORT TOKYO_LAND CMA_LAT CMA_LON CMA_CAT CMA_WIND CMA_PRES HKO_LAT HKO_LON HKO_CAT HKO_WIND HKO_PRES NEWDELHI_LAT NEWDELHI_LON NEWDELHI_GRADE NEWDELHI_WIND NEWDELHI_PRES NEWDELHI_CI NEWDELHI_DP NEWDELHI_POCI REUNION_LAT REUNION_LON REUNION_TYPE REUNION_WIND REUNION_PRES REUNION_TNUM REUNION_CI REUNION_RMW REUNION_R34_NE REUNION_R34_SE REUNION_R34_SW REUNION_R34_NW REUNION_R50_NE REUNION_R50_SE REUNION_R50_SW REUNION_R50_NW REUNION_R64_NE REUNION_R64_SE REUNION_R64_SW REUNION_R64_NW BOM_LAT BOM_LON BOM_TYPE BOM_WIND BOM_PRES BOM_TNUM BOM_CI BOM_RMW BOM_R34_NE BOM_R34_SE BOM_R34_SW BOM_R34_NW BOM_R50_NE BOM_R50_SE BOM_R50_SW BOM_R50_NW BOM_R64_NE BOM_R64_SE BOM_R64_SW BOM_R64_NW BOM_ROCI BOM_POCI BOM_EYE BOM_POS_METHOD BOM_PRES_METHOD NADI_LAT NADI_LON NADI_CAT NADI_WIND NADI_PRES WELLINGTON_LAT WELLINGTON_LON WELLINGTON_WIND WELLINGTON_PRES DS824_LAT DS824_LON DS824_STAGE DS824_WIND DS824_PRES TD9636_LAT TD9636_LON TD9636_STAGE TD9636_WIND TD9636_PRES TD9635_LAT TD9635_LON TD9635_WIND TD9635_PRES TD9635_ROCI NEUMANN_LAT NEUMANN_LON NEUMANN_CLASS NEUMANN_WIND NEUMANN_PRES MLC_LAT MLC_LON MLC_CLASS MLC_WIND MLC_PRES USA_GUST BOM_GUST BOM_GUST_PER REUNION_GUST REUNION_GUST_PER USA_SEAHGT USA_SEARAD_NE USA_SEARAD_SE USA_SEARAD_SW USA_SEARAD_NW STORM_SPEED STORM_DIR
1923103S21156 1923 26 SP EA NOT_NAMED 1923-04-12 23:00:00 NR -21.2000 156.300 main 506 497 __________O___ -1 -21.2000 156.300 7 7 208
1923103S21156 1923 26 SP EA NOT_NAMED 1923-04-13 00:00:00 NR -21.3102 156.240 main 490 457 __________P___ -1 -21.3102 156.240 7 7 206
1923103S21156 1923 26 SP EA NOT_NAMED 1923-04-13 03:00:00 NR -21.6470 156.067 main 457 410 __________P___ -1 -21.6470 156.067 7 8 203
1923103S21156 1923 26 SP EA NOT_NAMED 1923-04-13 06:00:00 NR -22.0060 155.922 main 410 369 __________P___ -1 -22.0060 155.922 7 8 196
1923103S21156 1923 26 SP EA NOT_NAMED 1923-04-13 09:00:00 NR -22.4043 155.826 main 369 346 __________P___ -1 -22.4043 155.826 7 8 189
1923103S21156 1923 26 SP EA NOT_NAMED 1923-04-13 11:00:00 NR -22.7000 155.800 main 346 338 __________O___ -1 -22.7000 155.800 7 9 182
1923103S21156 1923 26 SP EA NOT_NAMED 1923-04-13 12:00:00 NR -22.8585 155.800 main 331 304 __________P___ -1 -22.8585 155.800 7 10 176
1923103S21156 1923 26 SP EA NOT_NAMED 1923-04-13 15:00:00 NR -23.3651 155.850 main 306 281 __________P___ -1 -23.3651 155.850 7 10 172
1923103S21156 1923 26 SP EA NOT_NAMED 1923-04-13 18:00:00 NR -23.8893 155.957 main 290 277 __________P___ -1 -23.8893 155.957 7 11 167
1923103S21156 1923 26 SP EA NOT_NAMED 1923-04-13 21:00:00 NR -24.3935 156.098 main 280 278 __________P___ -1 -24.3935 156.098 7 10 165
1923103S21156 1923 26 SP EA NOT_NAMED 1923-04-13 23:00:00 NR -24.7000 156.200 main 284 283 __________O___ -1 -24.7000 156.200 7 9 163
1923103S21156 1923 26 SP EA NOT_NAMED 1923-04-14 00:00:00 NR -24.8342 156.241 main 283 282 __________P___ -1 -24.8342 156.241 7 8 163
1923103S21156 1923 26 SP EA NOT_NAMED 1923-04-14 03:00:00 NR -25.1994 156.374 main 302 302 __________P___ -1 -25.1994 156.374 7 7 160
1923103S21156 1923 26 SP EA NOT_NAMED 1923-04-14 06:00:00 NR -25.5204 156.521 main 316 316 __________P___ -1 -25.5204 156.521 7 7 155
1923103S21156 1923 26 SP EA NOT_NAMED 1923-04-14 09:00:00 NR -25.8130 156.684 main 343 343 __________P___ -1 -25.8130 156.684 7 7 152
1923103S21156 1923 26 SP EA NOT_NAMED 1923-04-14 11:00:00 NR -26.0000 156.800 main 358 358 __________O___ -1 -26.0000 156.800 7 7 152
1923103S21156 1923 26 SP EA NOT_NAMED 1923-04-14 12:00:00 NR -26.1020 156.854 main 371 371 __________P___ -1 -26.1020 156.854 7 7 153
1923103S21156 1923 26 SP EA NOT_NAMED 1923-04-14 15:00:00 NR -26.3985 157.024 main 384 384 __________P___ -1 -26.3985 157.024 7 7 151
1923103S21156 1923 26 SP EA NOT_NAMED 1923-04-14 18:00:00 NR -26.6784 157.214 main 392 392 __________P___ -1 -26.6784 157.214 7 7 146
1923103S21156 1923 26 SP EA NOT_NAMED 1923-04-14 21:00:00 NR -26.9388 157.433 main 401 397 __________P___ -1 -26.9388 157.433 7 7 141
1923103S21156 1923 26 SP EA NOT_NAMED 1923-04-14 23:00:00 NR -27.1000 157.600 main 412 412 __________O___ -1 -27.1000 157.600 7 7 138
1923103S21156 1923 26 SP EA NOT_NAMED 1923-04-15 00:00:00 NR -27.1852 157.684 main 418 418 __________P___ -1 -27.1852 157.684 7 7 136
1923103S21156 1923 26 SP EA NOT_NAMED 1923-04-15 03:00:00 NR -27.4279 157.961 main 441 439 __________P___ -1 -27.4279 157.961 7 7 131
1923103S21156 1923 26 SP EA NOT_NAMED 1923-04-15 06:00:00 NR -27.6416 158.277 main 466 464 __________P___ -1 -27.6416 158.277 7 7 123
1923103S21156 1923 26 SP EA NOT_NAMED 1923-04-15 09:00:00 NR -27.8141 158.636 main 492 492 __________P___ -1 -27.8141 158.636 7 7 115
1923103S21156 1923 26 SP EA NOT_NAMED 1923-04-15 11:00:00 NR -27.9000 158.900 main 520 520 __________O___ -1 -27.9000 158.900 7 8 110
1923103S21156 1923 26 SP EA NOT_NAMED 1923-04-15 12:00:00 NR -27.9417 159.039 main 530 530 __________P___ -1 -27.9417 159.039 7 8 104
1923103S21156 1923 26 SP EA NOT_NAMED 1923-04-15 15:00:00 NR -28.0324 159.491 main 578 578 __________P___ -1 -28.0324 159.491 7 8 99
1923103S21156 1923 26 SP EA NOT_NAMED 1923-04-15 18:00:00 NR -28.0686 159.976 main 626 626 __________P___ -1 -28.0686 159.976 7 9 91
1923103S21156 1923 26 SP MM NOT_NAMED 1923-04-15 21:00:00 NR -28.0475 160.473 main 676 676 __________P___ -1 -28.0475 160.473 7 9 85
1923103S21156 1923 26 SP MM NOT_NAMED 1923-04-15 23:00:00 NR -28.0000 160.800 main 705 705 __________O___ -1 -28.0000 160.800 7 9 80
1923103S21156 1923 26 SP MM NOT_NAMED 1923-04-16 00:00:00 NR -27.9744 160.955 main 725 725 __________P___ -1 -27.9744 160.955 7 8 75
1923103S21156 1923 26 SP MM NOT_NAMED 1923-04-16 03:00:00 NR -27.8565 161.414 main 765 760 __________P___ -1 -27.8565 161.414 7 9 70
1923103S21156 1923 26 SP MM NOT_NAMED 1923-04-16 06:00:00 NR -27.6838 161.865 main 754 712 __________P___ -1 -27.6838 161.865 7 9 64
1923103S21156 1923 26 SP MM NOT_NAMED 1923-04-16 09:00:00 NR -27.4659 162.308 main 712 677 __________P___ -1 -27.4659 162.308 7 9 60
1923103S21156 1923 26 SP MM NOT_NAMED 1923-04-16 11:00:00 NR -27.3000 162.600 main 677 662 __________O___ -1 -27.3000 162.600 7 9 57
1923103S21156 1923 26 SP MM NOT_NAMED 1923-04-16 12:00:00 NR -27.2119 162.745 main 662 607 __________P___ -1 -27.2119 162.745 7 9 54
1923103S21156 1923 26 SP MM NOT_NAMED 1923-04-16 15:00:00 NR -26.9304 163.175 main 607 557 __________P___ -1 -26.9304 163.175 7 10 53
1923103S21156 1923 26 SP MM NOT_NAMED 1923-04-16 18:00:00 NR -26.6286 163.600 main 557 508 __________P___ -1 -26.6286 163.600 7 10 51
1923103S21156 1923 26 SP MM NOT_NAMED 1923-04-16 21:00:00 NR -26.3137 164.021 main 508 474 __________P___ -1 -26.3137 164.021 7 10 50
1923103S21156 1923 26 SP MM NOT_NAMED 1923-04-16 23:00:00 NR -26.1000 164.300 main 474 __________O___ -1 -26.1000 164.300 7 10 49

デジタル台風データ・検索

IBTrACS Databaseについて

本データベースは、米国NOAAが公開する1842年以降の世界の熱帯低気圧のベストトラックデータアーカイブInternational Best Track Archive for Climate Stewardship (IBTrACS)を、ウェブで閲覧しやすい形式に変換したものです。

最終更新日:2021-10-19